Time;durP1;ratioP1;P1;durP2;ratioP2;P2;SDS_P1;SDS_P2;PMS_P1;PMS_P2;Temp;Humidity;BMP_temperature;BMP_pressure;BME280_temperature;BME280_humidity;BME280_pressure;Samples;Min_cycle;Max_cycle;Signal;HPM_P1;HPM_P2
2021/05/17 00:00:10;;;;;;;7.67;4.73;;;;;;;16.62;60.36;99518.69;1702183;84;21856;-74
2021/05/17 00:02:40;;;;;;;5.72;4.08;;;;;;;16.58;60.25;99519.11;1702560;82;21797;-73
2021/05/17 00:05:08;;;;;;;6.13;4.07;;;;;;;16.53;60.29;99512.53;1701249;82;21247;-73
2021/05/17 00:07:36;;;;;;;6.47;4.10;;;;;;;16.52;60.28;99509.61;1698659;82;21804;-72
2021/05/17 00:10:07;;;;;;;5.87;4.20;;;;;;;16.50;60.39;99504.30;1700933;84;21884;-74
2021/05/17 00:12:35;;;;;;;5.15;4.33;;;;;;;16.50;60.39;99504.30;1702642;83;21800;-72
2021/05/17 00:15:06;;;;;;;6.43;4.53;;;;;;;16.48;60.30;99507.30;1691209;84;21026;-73
2021/05/17 00:17:33;;;;;;;6.87;4.20;;;;;;;16.48;59.98;99512.69;1700449;84;22402;-73
2021/05/17 00:20:02;;;;;;;6.23;3.97;;;;;;;16.48;59.75;99512.69;1699545;84;21730;-72
2021/05/17 00:22:29;;;;;;;9.93;4.60;;;;;;;16.49;59.75;99510.81;1702563;83;22267;-72
2021/05/17 00:24:59;;;;;;;8.47;4.43;;;;;;;16.49;59.46;99498.68;1703950;84;22277;-72
2021/05/17 00:27:28;;;;;;;6.00;4.30;;;;;;;16.48;59.40;99507.86;1699260;83;21734;-72
2021/05/17 00:29:56;;;;;;;7.23;4.03;;;;;;;16.49;59.81;99511.59;1664789;85;22348;-73
2021/05/17 00:32:23;;;;;;;5.87;4.43;;;;;;;16.48;60.40;99493.82;1638917;86;21869;-74
2021/05/17 00:34:52;;;;;;;6.07;4.17;;;;;;;16.48;60.40;99493.82;1708166;83;21638;-73
2021/05/17 00:37:19;;;;;;;6.40;4.20;;;;;;;16.50;60.53;99493.52;1699679;83;21829;-74
2021/05/17 00:39:46;;;;;;;6.17;4.23;;;;;;;16.50;60.31;99490.26;1698621;83;21705;-73
2021/05/17 00:42:14;;;;;;;7.93;3.67;;;;;;;16.51;60.34;99496.44;1696672;83;21765;-73
2021/05/17 00:44:41;;;;;;;5.97;3.70;;;;;;;16.51;60.11;99495.88;1689166;82;21768;-73
2021/05/17 00:47:14;;;;;;;5.70;3.53;;;;;;;16.54;59.86;99490.41;1700893;83;21822;-73
2021/05/17 00:49:44;;;;;;;6.57;4.00;;;;;;;16.56;59.75;99486.28;1698593;83;21846;-74
2021/05/17 00:52:13;;;;;;;6.10;3.93;;;;;;;16.57;59.81;99484.37;1703172;84;21697;-74
2021/05/17 00:54:41;;;;;;;6.70;3.97;;;;;;;16.56;60.05;99488.19;1704323;84;21740;-74
2021/05/17 00:57:09;;;;;;;6.23;3.90;;;;;;;16.53;60.09;99485.57;1702193;83;21709;-73
2021/05/17 00:59:36;;;;;;;5.20;3.47;;;;;;;16.54;59.83;99489.05;1696588;83;21832;-72
2021/05/17 01:02:03;;;;;;;7.37;3.90;;;;;;;16.54;59.53;99487.70;1695147;83;21800;-73
2021/05/17 01:04:49;;;;;;;5.73;4.03;;;;;;;16.54;59.32;99493.89;1700776;82;21809;-73
2021/05/17 01:07:15;;;;;;;5.47;3.63;;;;;;;16.53;59.19;99499.05;1701620;84;21805;-73
2021/05/17 01:09:43;;;;;;;6.50;3.50;;;;;;;16.53;59.12;99507.14;1693597;83;21756;-73
2021/05/17 01:12:10;;;;;;;7.00;4.30;;;;;;;16.53;59.13;99509.05;1680086;84;22382;-73
2021/05/17 01:14:37;;;;;;;4.63;3.57;;;;;;;16.51;59.12;99499.92;1684620;84;21832;-73
2021/05/17 01:17:06;;;;;;;6.07;3.70;;;;;;;16.49;58.94;99494.08;1703482;84;21748;-73
2021/05/17 01:19:41;;;;;;;6.90;3.80;;;;;;;16.52;59.20;99496.66;1692933;82;21871;-73
2021/05/17 01:22:21;;;;;;;6.63;4.00;;;;;;;16.50;59.35;99487.56;1699926;84;21764;-73
2021/05/17 01:24:38;;;;;;;4.63;3.70;;;;;;;16.49;59.16;99490.03;1702479;83;21614;-73
2021/05/17 01:27:08;;;;;;;6.57;4.03;;;;;;;16.50;59.49;99495.65;1695951;82;21920;-72
2021/05/17 01:29:37;;;;;;;4.57;3.47;;;;;;;16.49;59.62;99495.98;1694247;82;22263;-73
2021/05/17 01:32:07;;;;;;;5.60;3.93;;;;;;;16.45;59.48;99493.11;1698449;84;21760;-73
2021/05/17 01:34:34;;;;;;;6.37;4.00;;;;;;;16.43;59.56;99498.05;1700808;82;21868;-74
2021/05/17 01:37:02;;;;;;;7.17;4.30;;;;;;;16.43;60.91;99505.35;1690866;84;21781;-73
2021/05/17 01:39:30;;;;;;;6.43;3.90;;;;;;;16.30;63.83;99517.34;1698076;83;22445;-72
2021/05/17 01:41:56;;;;;;;6.47;4.10;;;;;;;16.30;63.83;99517.34;1701000;83;21721;-72
2021/05/17 01:44:24;;;;;;;6.63;4.43;;;;;;;16.29;64.27;99527.89;1700365;84;21848;-73
2021/05/17 01:46:51;;;;;;;6.70;4.70;;;;;;;16.30;65.36;99530.03;1703773;84;21762;-72
2021/05/17 01:49:19;;;;;;;6.07;4.00;;;;;;;16.30;66.04;99536.77;1701547;82;22884;-73
2021/05/17 01:51:48;;;;;;;6.93;4.67;;;;;;;16.24;66.49;99530.74;1700048;84;21764;-73
2021/05/17 01:54:17;;;;;;;6.40;4.43;;;;;;;16.19;66.94;99533.62;1696980;84;21760;-74
2021/05/17 01:56:45;;;;;;;6.80;4.60;;;;;;;16.14;67.56;99525.12;1698220;84;21853;-73
2021/05/17 01:59:14;;;;;;;7.23;4.63;;;;;;;16.02;68.20;99521.49;1704484;83;21740;-73
2021/05/17 02:01:42;;;;;;;6.47;4.40;;;;;;;15.83;68.87;99508.38;1703797;83;21752;-74
2021/05/17 02:04:09;;;;;;;5.80;4.80;;;;;;;15.64;69.86;99508.66;1684349;84;21792;-73
2021/05/17 02:06:36;;;;;;;6.80;4.97;;;;;;;15.49;70.50;99493.74;1703639;83;21745;-73
2021/05/17 02:09:05;;;;;;;7.53;5.03;;;;;;;15.45;72.16;99475.31;1702496;82;21813;-73
2021/05/17 02:11:33;;;;;;;7.00;5.03;;;;;;;15.43;73.13;99476.16;1698072;83;21746;-72
2021/05/17 02:14:02;;;;;;;6.50;4.60;;;;;;;15.43;73.13;99476.16;1702624;83;21765;-73
2021/05/17 02:16:29;;;;;;;7.30;4.93;;;;;;;15.27;74.62;99469.66;1703812;84;21737;-73
2021/05/17 02:18:57;;;;;;;7.17;5.30;;;;;;;15.27;74.62;99469.66;1704635;83;21737;-74
2021/05/17 02:21:25;;;;;;;8.83;5.37;;;;;;;15.17;74.69;99467.53;1698847;84;21635;-73
2021/05/17 02:23:52;;;;;;;7.17;5.03;;;;;;;15.13;74.61;99473.27;1703367;82;22116;-72
2021/05/17 02:26:20;;;;;;;9.13;5.20;;;;;;;15.13;74.61;99473.27;1683014;84;22202;-73
2021/05/17 02:28:49;;;;;;;10.87;5.90;;;;;;;15.15;74.38;99479.14;1695487;82;22179;-73
2021/05/17 02:31:17;;;;;;;8.30;5.57;;;;;;;15.15;74.38;99479.14;1690712;82;21540;-73
2021/05/17 02:33:44;;;;;;;8.77;5.50;;;;;;;15.18;74.96;99495.21;1701092;83;21588;-73
2021/05/17 02:36:13;;;;;;;7.50;5.63;;;;;;;15.18;74.96;99495.21;1704077;84;21501;-73
2021/05/17 02:38:41;;;;;;;8.13;5.63;;;;;;;15.17;75.35;99494.42;1704211;84;21379;-73
2021/05/17 02:41:08;;;;;;;8.03;6.50;;;;;;;15.07;76.40;99485.83;1697825;84;21468;-73
2021/05/17 02:43:35;;;;;;;7.27;5.60;;;;;;;15.07;76.40;99485.83;1697395;83;21492;-72
2021/05/17 02:46:05;;;;;;;8.90;6.03;;;;;;;15.07;76.45;99479.93;1675684;83;21622;-72
2021/05/17 02:48:34;;;;;;;9.90;5.83;;;;;;;15.11;76.64;99476.06;1701141;83;21450;-72
2021/05/17 02:51:01;;;;;;;10.17;5.83;;;;;;;15.15;76.79;99471.08;1699636;83;21535;-72
2021/05/17 02:53:39;;;;;;;8.60;6.00;;;;;;;15.13;77.14;99467.89;1693538;84;22067;-72
2021/05/17 02:56:14;;;;;;;8.73;6.53;;;;;;;15.13;77.14;99467.89;1699542;84;21532;-72
2021/05/17 02:58:45;;;;;;;9.37;6.43;;;;;;;15.11;77.23;99469.34;1703939;83;21612;-72
2021/05/17 03:01:37;;;;;;;9.10;6.17;;;;;;;15.09;77.55;99469.63;1698395;82;22102;-72
2021/05/17 03:04:15;;;;;;;8.87;6.03;;;;;;;15.06;77.78;99474.30;1678997;84;21470;-72
2021/05/17 03:07:04;;;;;;;10.07;5.67;;;;;;;15.00;77.91;99465.59;1687581;84;21506;-73
2021/05/17 03:09:33;;;;;;;10.77;6.67;;;;;;;15.00;77.91;99465.59;1703223;84;21522;-71
2021/05/17 03:12:02;;;;;;;9.47;6.57;;;;;;;14.96;78.36;99457.11;1674757;83;21481;-72
2021/05/17 03:14:30;;;;;;;10.27;7.37;;;;;;;14.92;78.68;99450.78;1703699;84;21443;-72
2021/05/17 03:16:59;;;;;;;11.17;7.10;;;;;;;14.90;78.99;99448.94;1691740;83;21404;-71
2021/05/17 03:19:26;;;;;;;8.80;6.00;;;;;;;14.87;79.19;99436.94;1672941;84;21535;-72
2021/05/17 03:21:55;;;;;;;10.33;6.63;;;;;;;14.86;79.33;99422.45;1696328;83;21518;-73
2021/05/17 03:24:23;;;;;;;10.87;7.00;;;;;;;14.76;79.61;99405.50;1702814;84;21401;-72
2021/05/17 03:26:52;;;;;;;8.80;6.17;;;;;;;14.68;79.91;99381.31;1703431;84;21626;-71
2021/05/17 03:29:19;;;;;;;9.30;5.73;;;;;;;14.68;80.16;99363.84;1704538;83;22238;-72
2021/05/17 03:31:46;;;;;;;8.93;5.60;;;;;;;14.62;80.26;99309.44;1698309;82;21582;-73
2021/05/17 03:34:12;;;;;;;9.07;5.73;;;;;;;14.62;80.26;99309.44;1697913;83;21637;-73
2021/05/17 03:36:41;;;;;;;10.53;6.00;;;;;;;14.62;80.55;99298.69;1702059;83;21461;-73
2021/05/17 03:39:08;;;;;;;8.67;6.50;;;;;;;14.60;80.81;99310.85;1701888;84;21513;-73
2021/05/17 03:41:34;;;;;;;8.43;6.07;;;;;;;14.57;80.83;99329.73;1699717;83;21402;-73
2021/05/17 03:44:01;;;;;;;12.77;6.17;;;;;;;14.54;80.87;99330.36;1699769;84;21462;-72
2021/05/17 03:46:27;;;;;;;6.73;5.13;;;;;;;14.53;80.89;99326.09;1703362;83;21424;-73
2021/05/17 03:48:54;;;;;;;7.57;6.10;;;;;;;14.53;80.84;99317.48;1699173;84;21528;-74
2021/05/17 03:51:21;;;;;;;8.23;5.93;;;;;;;14.54;80.81;99318.27;1677934;83;21534;-74
2021/05/17 03:53:48;;;;;;;7.33;5.90;;;;;;;14.61;80.49;99325.34;1699954;84;21307;-74
2021/05/17 03:56:15;;;;;;;9.03;6.10;;;;;;;14.61;80.49;99325.34;1702484;83;22159;-73
2021/05/17 03:58:42;;;;;;;7.17;5.53;;;;;;;14.65;80.58;99324.94;1700771;82;21350;-73
2021/05/17 04:01:09;;;;;;;7.40;5.60;;;;;;;14.70;80.63;99325.33;1692799;84;21864;-73
2021/05/17 04:03:36;;;;;;;7.60;5.60;;;;;;;14.75;80.48;99320.61;1698833;84;21926;-73
2021/05/17 04:06:19;;;;;;;8.70;6.30;;;;;;;14.90;79.82;99306.45;1704687;84;21381;-73
2021/05/17 04:13:54;;;;;;;8.13;6.40;;;;;;;15.10;79.75;99293.71;1696287;84;21501;-74
2021/05/17 04:16:21;;;;;;;7.53;6.17;;;;;;;15.10;79.75;99293.71;1692890;84;21419;-74
2021/05/17 04:18:48;;;;;;;9.03;6.13;;;;;;;15.17;79.90;99300.77;1641898;85;21380;-74
2021/05/17 04:21:15;;;;;;;10.97;7.07;;;;;;;15.17;79.90;99300.77;1704097;84;21512;-73
2021/05/17 04:23:42;;;;;;;8.93;6.57;;;;;;;15.18;80.03;99303.69;1699276;83;21446;-73
2021/05/17 04:26:09;;;;;;;10.43;7.40;;;;;;;15.26;80.00;99322.26;1702806;83;21498;-75
2021/05/17 04:28:36;;;;;;;10.10;7.17;;;;;;;15.26;80.00;99322.26;1698823;84;21505;-73
2021/05/17 04:31:03;;;;;;;11.80;7.10;;;;;;;15.32;80.27;99322.89;1703380;83;21498;-74
2021/05/17 04:33:29;;;;;;;8.33;6.50;;;;;;;15.37;80.28;99329.47;1695438;84;21525;-74
2021/05/17 04:35:56;;;;;;;11.10;7.00;;;;;;;15.45;80.17;99347.49;1701020;84;21587;-74
2021/05/17 04:38:22;;;;;;;8.93;6.30;;;;;;;15.46;79.81;99349.88;1696499;82;21595;-74
2021/05/17 04:40:49;;;;;;;8.37;6.70;;;;;;;15.51;79.30;99347.56;1704427;84;21632;-74
2021/05/17 04:43:16;;;;;;;9.87;6.60;;;;;;;15.53;79.41;99345.36;1695115;83;21622;-74
2021/05/17 04:45:42;;;;;;;9.07;6.17;;;;;;;15.53;79.13;99339.97;1694055;83;21728;-74
2021/05/17 04:48:09;;;;;;;8.00;6.77;;;;;;;15.56;79.01;99338.52;1688813;84;22290;-74
2021/05/17 04:50:37;;;;;;;9.13;6.03;;;;;;;15.60;78.75;99338.92;1694204;84;21629;-74
2021/05/17 04:53:04;;;;;;;14.67;7.43;;;;;;;15.60;78.75;99338.92;1666403;85;21783;-74
2021/05/17 04:55:32;;;;;;;7.67;5.60;;;;;;;15.63;78.93;99340.98;1703494;83;21805;-75
2021/05/17 04:57:59;;;;;;;8.70;6.40;;;;;;;15.70;78.46;99333.23;1702716;82;22156;-74
2021/05/17 05:00:25;;;;;;;9.77;6.47;;;;;;;15.70;78.46;99333.23;1688831;84;21754;-74
2021/05/17 05:02:52;;;;;;;8.87;6.67;;;;;;;15.72;78.18;99322.13;1700263;82;21796;-73
2021/05/17 05:05:19;;;;;;;9.23;6.60;;;;;;;15.75;78.46;99323.39;1700797;84;22321;-73
2021/05/17 05:07:46;;;;;;;12.77;8.20;;;;;;;15.76;78.45;99322.27;1697732;84;21769;-74
2021/05/17 05:10:13;;;;;;;12.60;7.73;;;;;;;15.75;78.45;99323.39;1690090;82;21809;-74
2021/05/17 05:12:40;;;;;;;15.33;8.87;;;;;;;15.73;78.31;99317.00;1685525;82;21946;-75
2021/05/17 05:15:08;;;;;;;13.90;9.43;;;;;;;15.74;78.30;99317.23;1696549;84;22387;-75
2021/05/17 05:17:35;;;;;;;16.03;9.73;;;;;;;15.77;78.36;99309.06;1703701;83;22273;-75
2021/05/17 05:20:01;;;;;;;17.90;9.97;;;;;;;15.80;78.44;99305.17;1698017;83;21781;-75
2021/05/17 05:22:28;;;;;;;18.03;9.97;;;;;;;15.80;78.44;99305.17;1686482;83;21805;-72
2021/05/17 05:24:56;;;;;;;16.80;9.23;;;;;;;15.84;78.95;99293.20;1697382;84;21782;-74
2021/05/17 05:27:33;;;;;;;15.80;8.90;;;;;;;15.87;79.07;99280.44;1700952;83;21841;-73
2021/05/17 05:30:12;;;;;;;;;;;;;;;15.87;79.07;99280.44;1683511;82;21515;-74
2021/05/17 05:32:35;;;;;;;17.30;9.43;;;;;;;15.92;79.33;99260.05;1699029;83;21101;-75
2021/05/17 05:35:00;;;;;;;15.88;8.73;;;;;;;15.92;79.33;99260.05;1694190;83;21778;-74
2021/05/17 05:37:27;;;;;;;14.00;8.30;;;;;;;15.98;79.39;99249.89;1702079;83;21105;-74
2021/05/17 05:39:53;;;;;;;11.47;8.23;;;;;;;16.00;79.49;99244.42;1690580;84;22111;-74
2021/05/17 05:42:20;;;;;;;9.70;7.87;;;;;;;16.02;79.49;99238.13;1701722;83;21793;-74
2021/05/17 05:44:48;;;;;;;10.10;7.80;;;;;;;16.02;79.44;99234.66;1694163;82;21763;-73
2021/05/17 05:47:16;;;;;;;9.90;7.13;;;;;;;16.03;79.35;99242.98;1694720;83;21771;-75
2021/05/17 05:49:44;;;;;;;7.83;6.57;;;;;;;16.00;79.20;99233.66;1696016;83;22441;-74
2021/05/17 05:52:12;;;;;;;10.20;6.07;;;;;;;16.00;78.82;99228.27;1702088;84;21817;-74
2021/05/17 05:54:39;;;;;;;7.53;5.93;;;;;;;15.98;78.29;99218.36;1697977;82;22485;-74
2021/05/17 05:57:08;;;;;;;6.60;5.47;;;;;;;15.95;77.67;99207.67;1699206;83;21766;-74
2021/05/17 05:59:36;;;;;;;6.83;5.27;;;;;;;15.94;77.54;99199.38;1701734;83;21773;-74
2021/05/17 06:02:03;;;;;;;7.33;5.13;;;;;;;15.93;77.07;99191.08;1697548;83;21769;-75
2021/05/17 06:04:31;;;;;;;6.60;5.33;;;;;;;15.91;76.62;99178.48;1696574;82;21753;-74
2021/05/17 06:06:59;;;;;;;7.60;5.30;;;;;;;15.89;76.64;99174.00;1697108;84;21794;-73
2021/05/17 06:09:26;;;;;;;8.20;5.63;;;;;;;15.89;76.65;99172.66;1701349;83;21924;-70
2021/05/17 06:11:55;;;;;;;8.70;5.97;;;;;;;15.92;76.87;99175.23;1694936;84;22327;-69
2021/05/17 06:14:24;;;;;;;7.63;5.97;;;;;;;15.95;77.07;99173.23;1690670;83;21793;-71
2021/05/17 06:16:53;;;;;;;9.57;6.63;;;;;;;16.02;77.23;99171.37;1698598;82;21919;-73
2021/05/17 06:19:21;;;;;;;8.50;6.30;;;;;;;16.09;77.29;99156.28;1702799;83;21781;-70
2021/05/17 06:21:48;;;;;;;10.30;6.57;;;;;;;16.14;77.17;99160.11;1706290;84;23829;-72
2021/05/17 06:24:19;;;;;;;8.70;6.47;;;;;;;16.15;76.97;99153.61;1699921;82;21839;-72
2021/05/17 06:26:46;;;;;;;7.53;6.47;;;;;;;16.18;76.99;99153.52;1696835;83;21887;-71
2021/05/17 06:29:13;;;;;;;10.17;6.97;;;;;;;16.22;77.03;99154.98;1698822;84;21888;-74
2021/05/17 06:31:46;;;;;;;9.00;6.43;;;;;;;16.28;77.08;99180.63;1693173;82;21833;-72
2021/05/17 06:34:13;;;;;;;;;;;;;;;16.35;77.00;99214.03;1695719;84;21793;-73
2021/05/17 06:36:40;;;;;;;9.63;7.40;;;;;;;16.43;77.00;99226.42;1696113;82;20587;-72
2021/05/17 06:39:09;;;;;;;11.83;7.63;;;;;;;16.53;76.84;99226.80;1700247;83;21792;-71
2021/05/17 06:41:37;;;;;;;11.07;7.47;;;;;;;16.84;76.10;99226.97;1703074;83;21798;-73
2021/05/17 06:44:06;;;;;;;9.63;7.20;;;;;;;16.84;76.10;99226.97;1690348;83;21139;-71
2021/05/17 06:46:33;;;;;;;10.67;8.60;;;;;;;17.22;75.19;99225.42;1692186;82;21132;-72
2021/05/17 06:49:00;;;;;;;10.50;7.40;;;;;;;17.22;75.19;99225.42;1702167;83;21153;-71
2021/05/17 06:51:28;;;;;;;9.27;6.60;;;;;;;17.42;74.51;99225.70;1699636;83;21121;-70
2021/05/17 06:53:59;;;;;;;9.73;7.73;;;;;;;17.65;73.79;99223.36;1703857;83;21038;-70
2021/05/17 06:58:57;;;;;;;8.50;6.47;;;;;;;17.94;72.23;99220.47;1665561;84;21203;-71
2021/05/17 07:01:26;;;;;;;9.57;6.67;;;;;;;18.05;71.76;99220.80;1647889;85;21132;-71
2021/05/17 07:03:54;;;;;;;7.63;5.73;;;;;;;18.13;71.06;99216.39;1700898;83;21371;-73
2021/05/17 07:06:23;;;;;;;9.27;5.80;;;;;;;18.20;70.30;99212.58;1691930;83;21085;-72
2021/05/17 07:14:07;;;;;;;6.40;4.43;;;;;;;18.17;69.36;99214.60;1702086;83;21062;-72
2021/05/17 07:16:34;;;;;;;5.90;4.50;;;;;;;18.22;68.78;99211.66;1698361;82;21140;-74
2021/05/17 07:19:01;;;;;;;6.67;4.33;;;;;;;18.30;68.85;99191.83;1696272;83;21141;-73
2021/05/17 07:24:12;;;;;;;7.00;4.63;;;;;;;18.49;67.91;99179.84;1703104;84;21587;-71
2021/05/17 07:26:39;;;;;;;6.83;4.53;;;;;;;18.59;67.39;99184.52;1697372;84;21604;-71
2021/05/17 07:29:09;;;;;;;4.87;4.30;;;;;;;18.62;67.00;99191.94;1691176;83;21046;-72
2021/05/17 07:31:35;;;;;;;6.63;4.70;;;;;;;18.66;66.97;99191.50;1689513;84;21220;-71
2021/05/17 07:34:03;;;;;;;5.67;4.23;;;;;;;18.70;66.38;99192.37;1702021;84;21073;-72
2021/05/17 07:36:31;;;;;;;6.43;4.83;;;;;;;18.75;66.48;99185.38;1697478;82;21137;-70
2021/05/17 07:38:58;;;;;;;7.13;4.57;;;;;;;18.87;66.57;99199.44;1700047;83;21207;-77
2021/05/17 07:41:25;;;;;;;6.27;4.60;;;;;;;18.97;65.90;99217.30;1695527;83;21081;-76
2021/05/17 07:43:53;;;;;;;7.27;3.97;;;;;;;19.06;65.20;99227.20;1684646;82;21204;-77
2021/05/17 07:46:20;;;;;;;6.83;4.37;;;;;;;19.13;64.53;99239.56;1687115;84;21066;-77
2021/05/17 07:51:32;;;;;;;8.20;4.33;;;;;;;19.23;63.77;99232.86;1640902;85;21253;-78
2021/05/17 07:53:59;;;;;;;5.83;4.50;;;;;;;19.33;63.56;99218.81;1703872;84;21009;-78
2021/05/17 07:56:25;;;;;;;6.70;4.67;;;;;;;19.43;63.07;99225.06;1702104;84;21069;-77
2021/05/17 07:58:54;;;;;;;7.23;5.10;;;;;;;19.52;63.20;99221.63;1664741;84;21726;-77
2021/05/17 08:01:21;;;;;;;7.47;5.07;;;;;;;19.58;63.64;99218.09;1686412;84;21090;-78
2021/05/17 08:03:50;;;;;;;10.23;5.47;;;;;;;19.67;63.93;99222.20;1700401;84;21133;-77
2021/05/17 08:06:17;;;;;;;6.80;5.17;;;;;;;19.80;64.06;99223.47;1699321;82;21084;-78
2021/05/17 08:08:44;;;;;;;7.83;4.93;;;;;;;19.98;63.17;99233.39;1696158;84;21654;-78
2021/05/17 08:11:11;;;;;;;7.23;4.93;;;;;;;20.00;63.05;99237.30;1698973;84;21077;-79
2021/05/17 08:13:41;;;;;;;5.70;4.57;;;;;;;20.11;62.93;99238.92;1685275;83;21184;-79
2021/05/17 08:16:10;;;;;;;7.23;4.87;;;;;;;20.27;62.16;99246.99;1688787;82;21057;-77
2021/05/17 08:18:38;;;;;;;8.03;4.63;;;;;;;20.38;62.04;99235.25;1696775;84;21121;-77
2021/05/17 08:21:07;;;;;;;9.13;4.57;;;;;;;20.54;62.04;99230.39;1659631;85;21051;-76
2021/05/17 08:23:35;;;;;;;7.73;4.47;;;;;;;20.79;61.38;99227.58;1693235;84;21026;-77
2021/05/17 08:26:06;;;;;;;5.40;3.70;;;;;;;21.02;60.26;99230.93;1685111;84;21131;-78
2021/05/17 08:28:34;;;;;;;5.37;4.22;;;;;;;21.18;59.13;99238.41;1698511;82;21136;-77
2021/05/17 08:31:02;;;;;;;5.90;3.87;;;;;;;21.25;58.11;99239.89;1680104;84;21698;-77
2021/05/17 08:33:32;;;;;;;6.40;3.60;;;;;;;21.21;58.19;99243.70;1699147;83;21097;-77
2021/05/17 08:36:00;;;;;;;4.87;2.70;;;;;;;21.14;58.29;99245.71;1696644;82;21706;-77
2021/05/17 08:38:27;;;;;;;4.87;3.50;;;;;;;21.29;57.45;99259.78;1690991;83;21201;-77
2021/05/17 08:40:56;;;;;;;6.90;4.00;;;;;;;21.47;57.42;99273.69;1700528;83;21113;-78
2021/05/17 08:43:24;;;;;;;6.50;3.70;;;;;;;21.68;57.12;99277.92;1692177;84;21107;-76
2021/05/17 08:45:53;;;;;;;6.53;3.30;;;;;;;21.85;56.03;99279.36;1674184;84;21196;-77
2021/05/17 08:48:20;;;;;;;4.73;2.70;;;;;;;21.97;55.25;99276.45;1695642;82;21105;-77
2021/05/17 08:50:47;;;;;;;4.33;2.80;;;;;;;22.06;53.84;99277.00;1695359;84;21869;-77
2021/05/17 08:53:14;;;;;;;3.50;2.30;;;;;;;22.07;52.78;99275.05;1688877;83;21119;-76
2021/05/17 08:55:40;;;;;;;3.27;2.20;;;;;;;22.00;52.77;99271.66;1693188;84;21069;-69
2021/05/17 08:58:07;;;;;;;3.90;2.07;;;;;;;21.93;52.20;99281.06;1697151;82;21101;-74
2021/05/17 09:00:35;;;;;;;5.27;2.30;;;;;;;21.85;52.46;99268.48;1697509;84;21113;-77
2021/05/17 09:03:01;;;;;;;3.83;2.30;;;;;;;21.82;52.78;99278.18;1665013;84;21138;-75
2021/05/17 09:05:32;;;;;;;5.17;1.97;;;;;;;21.78;52.57;99278.67;1703740;84;21145;-75
2021/05/17 09:08:05;;;;;;;4.07;2.30;;;;;;;21.70;52.74;99273.70;1698727;83;21680;-75
2021/05/17 09:10:38;;;;;;;4.50;2.30;;;;;;;21.65;52.86;99286.25;1699939;84;21112;-75
2021/05/17 09:13:14;;;;;;;4.07;2.53;;;;;;;21.54;52.33;99292.83;1699760;83;21165;-72
2021/05/17 09:15:50;;;;;;;4.83;2.63;;;;;;;21.43;52.57;99295.16;1705680;84;21061;-75
2021/05/17 09:18:22;;;;;;;5.20;2.20;;;;;;;21.32;52.77;99294.91;1697792;82;21851;-76
2021/05/17 09:20:52;;;;;;;4.62;2.08;;;;;;;21.27;53.10;99309.58;1695751;84;21160;-76
2021/05/17 09:23:34;;;;;;;5.37;2.93;;;;;;;21.24;53.55;99311.66;1686875;84;21133;-76
2021/05/17 09:26:09;;;;;;;4.63;2.40;;;;;;;21.12;53.87;99313.73;1674673;84;21263;-76
2021/05/17 09:28:39;;;;;;;4.37;2.67;;;;;;;21.04;54.09;99323.67;1685725;83;21124;-75
2021/05/17 09:31:09;;;;;;;4.57;3.00;;;;;;;20.93;54.89;99323.45;1694321;84;21130;-75
2021/05/17 09:33:48;;;;;;;4.33;2.40;;;;;;;20.83;55.56;99334.30;1679626;83;21085;-76
2021/05/17 09:36:39;;;;;;;4.87;2.87;;;;;;;20.73;55.97;99341.64;1679133;84;21434;-76
2021/05/17 09:39:08;;;;;;;4.17;2.57;;;;;;;20.61;56.79;99347.19;1684925;83;21688;-75
2021/05/17 09:41:46;;;;;;;5.37;2.80;;;;;;;20.46;57.32;99356.09;1694505;84;21651;-75
2021/05/17 09:44:21;;;;;;;5.60;3.10;;;;;;;20.26;58.66;99354.67;1703433;84;21085;-73
2021/05/17 09:47:20;;;;;;;7.13;3.60;;;;;;;20.05;59.88;99356.30;1703618;84;21600;-75
2021/05/17 09:49:56;;;;;;;5.93;3.40;;;;;;;19.81;60.96;99343.70;1697343;82;21154;-75
2021/05/17 09:52:30;;;;;;;7.13;3.57;;;;;;;19.58;61.75;99322.37;1697657;84;21073;-75
2021/05/17 09:55:11;;;;;;;8.33;5.20;;;;;;;19.34;63.36;99290.20;1693660;84;21101;-74
2021/05/17 09:57:44;;;;;;;9.08;5.28;;;;;;;19.13;65.31;99253.09;1640914;85;21096;-74
2021/05/17 10:00:25;;;;;;;8.33;4.97;;;;;;;18.90;67.54;99242.81;1698659;84;21038;-75
2021/05/17 10:02:54;;;;;;;7.43;4.67;;;;;;;18.62;69.07;99222.47;1690918;82;21105;-75
2021/05/17 10:05:30;;;;;;;6.95;4.37;;;;;;;18.28;70.48;99173.80;1698436;83;21096;-77
2021/05/17 10:08:03;;;;;;;7.43;4.43;;;;;;;17.99;71.68;99124.89;1703188;84;21175;-78
2021/05/17 10:10:31;;;;;;;7.33;4.43;;;;;;;17.76;73.24;99093.50;1694322;82;21709;-76
2021/05/17 10:13:01;;;;;;;7.27;4.30;;;;;;;17.52;74.36;99072.73;1700770;83;21053;-78
2021/05/17 10:15:32;;;;;;;7.13;3.87;;;;;;;17.33;75.64;99061.16;1696592;83;21649;-76
2021/05/17 10:17:59;;;;;;;7.70;4.10;;;;;;;17.17;76.75;99073.75;1703855;83;21153;-76
2021/05/17 10:20:28;;;;;;;6.53;3.73;;;;;;;17.06;77.99;99075.55;1698818;83;21139;-77
2021/05/17 10:22:56;;;;;;;5.23;3.70;;;;;;;17.00;78.81;99063.96;1689523;84;21125;-75
2021/05/17 10:25:34;;;;;;;6.13;3.67;;;;;;;16.96;79.37;99072.50;1691463;83;21108;-75
2021/05/17 10:28:13;;;;;;;5.40;4.07;;;;;;;16.98;79.69;99079.69;1699010;82;21179;-75
2021/05/17 10:30:40;;;;;;;7.97;4.60;;;;;;;17.02;80.05;99094.09;1699218;82;21734;-75
2021/05/17 10:33:10;;;;;;;7.50;4.63;;;;;;;17.10;80.27;99111.52;1694945;83;21077;-76
2021/05/17 10:35:47;;;;;;;6.57;3.97;;;;;;;17.24;80.35;99118.49;1698847;84;21655;-77
2021/05/17 10:38:26;;;;;;;8.33;5.10;;;;;;;17.38;79.78;99114.14;1699744;82;21423;-74
2021/05/17 10:41:02;;;;;;;13.53;5.73;;;;;;;17.54;79.20;99118.52;1698204;83;21526;-75
2021/05/17 10:44:01;;;;;;;11.23;4.80;;;;;;;17.76;79.02;99125.37;1684782;84;21267;-75
2021/05/17 10:46:44;;;;;;;8.20;4.20;;;;;;;17.94;77.87;99122.44;1688247;84;21149;-75
2021/05/17 10:49:33;;;;;;;6.07;3.90;;;;;;;18.12;76.64;99134.54;1700523;84;21096;-75
2021/05/17 10:52:11;;;;;;;8.60;3.53;;;;;;;18.27;75.65;99137.10;1696076;83;21085;-73
2021/05/17 10:54:43;;;;;;;7.30;3.70;;;;;;;18.42;74.72;99147.73;1700326;83;21153;-75
2021/05/17 10:57:41;;;;;;;8.77;4.23;;;;;;;18.51;73.61;99140.28;1695742;83;21053;-72
2021/05/17 11:00:28;;;;;;;4.97;3.50;;;;;;;18.66;73.45;99144.17;1699164;82;21140;-76
2021/05/17 11:03:09;;;;;;;4.90;3.50;;;;;;;18.86;72.58;99147.82;1697734;84;21093;-74
2021/05/17 11:05:36;;;;;;;4.80;3.37;;;;;;;19.01;71.49;99142.20;1691542;83;21615;-74
2021/05/17 11:08:09;;;;;;;4.70;3.47;;;;;;;19.11;70.83;99149.23;1702708;83;21124;-75
2021/05/17 11:10:38;;;;;;;;;;;;;;;19.19;70.51;99139.39;1699622;83;21125;-75
2021/05/17 11:13:19;;;;;;;5.43;3.30;;;;;;;19.32;70.33;99138.73;1692540;83;21920;-75
2021/05/17 11:15:58;;;;;;;5.37;3.17;;;;;;;19.43;69.86;99140.55;1689184;84;21105;-75
2021/05/17 11:18:32;;;;;;;4.13;3.03;;;;;;;19.50;69.18;99143.21;1697841;83;21600;-74
2021/05/17 11:21:12;;;;;;;5.03;2.90;;;;;;;19.61;68.90;99145.05;1700880;82;21117;-76
2021/05/17 11:23:45;;;;;;;4.20;3.40;;;;;;;19.72;67.63;99155.37;1694913;84;21175;-75
2021/05/17 11:26:14;;;;;;;5.07;3.47;;;;;;;19.79;67.81;99168.50;1690911;83;21188;-75
2021/05/17 11:28:49;;;;;;;4.20;2.98;;;;;;;19.86;67.39;99159.75;1702971;82;21117;-75
2021/05/17 11:31:30;;;;;;;5.47;2.90;;;;;;;19.84;66.00;99159.30;1693755;83;21643;-76
2021/05/17 11:34:07;;;;;;;3.87;2.80;;;;;;;19.73;65.13;99165.06;1690700;84;21045;-76
2021/05/17 11:36:51;;;;;;;3.70;2.87;;;;;;;19.59;65.39;99164.13;1689195;82;21034;-76
2021/05/17 11:39:27;;;;;;;4.53;2.60;;;;;;;19.49;66.06;99170.86;1693576;84;21812;-75
2021/05/17 11:42:03;;;;;;;4.93;2.80;;;;;;;19.42;65.43;99167.98;1697782;82;21192;-75
2021/05/17 11:44:56;;;;;;;3.87;2.40;;;;;;;19.31;65.52;99181.24;1694086;84;21110;-74
2021/05/17 11:47:28;;;;;;;4.13;2.50;;;;;;;19.20;65.62;99188.31;1700822;84;21062;-74
2021/05/17 11:49:55;;;;;;;3.90;2.80;;;;;;;19.07;65.85;99193.58;1696707;84;21108;-76
2021/05/17 11:52:28;;;;;;;4.37;2.90;;;;;;;18.93;66.09;99198.05;1699397;83;21101;-68
2021/05/17 11:55:07;;;;;;;5.17;3.20;;;;;;;18.85;66.66;99188.94;1695095;84;21145;-69
2021/05/17 11:57:38;;;;;;;4.93;3.10;;;;;;;18.78;67.25;99184.70;1691296;83;21157;-69
2021/05/17 12:00:14;;;;;;;5.80;2.83;;;;;;;18.71;67.68;99192.59;1650541;85;21092;-70
2021/05/17 12:02:51;;;;;;;4.87;2.87;;;;;;;18.68;68.10;99195.98;1636957;86;21169;-69
2021/05/17 12:05:18;;;;;;;3.80;3.10;;;;;;;18.67;68.52;99189.00;1694777;84;21159;-71